Flight Track Log - Related Links

Times and Time Zones

All times are in EDT time to prevent confusion due to time zone crossing. See the ASQ6158 flight status page for this flight to view local times or setup timezone preferences in your user account.

Time Position Orientation Groundspeed Altitude Reporting Facility
EDT Latitude Longitude Course Direction KTS MPH feet Rate Location/Type
Sun 02:33:13 PM 29.9767 -95.3008 329° Northwest 180 207 700  Level Houston Center
Sun 02:33:24 PM 29.9786 -95.2953 68° East 151 174 900 1,397 Climbing Houston Center
Sun 02:34:26 PM 30.0200 -95.2728 25° Northeast 288 331 2,400 1,840 Climbing Houston Center
Sun 02:34:39 PM 30.0400 -95.2811 340° North 249 287 3,200 1,452 Climbing Houston Center
Sun 02:35:28 PM 30.0839 -95.2961 344° North 246 283 3,900 865 Climbing Houston Center
Sun 02:36:30 PM 30.1522 -95.3239 341° North 254 292 4,800 1,597 Climbing Houston Center
Sun 02:37:00 PM 30.4484 -95.5244 335° Northwest  Level Estimated
Sun 02:37:32 PM 30.2286 -95.3783 328° Northwest 278 320 7,200  Level Houston Center
Sun 02:38:00 PM 30.5325 -95.5826 329° Northwest  Level FlightAware Approximate
Sun 02:38:34 PM 30.2903 -95.4325 323° Northwest 280 322 9,100  Level Houston Center
Sun 02:39:36 PM 30.3547 -95.4892 323° Northwest 289 333 10,500 1,694 Climbing Houston Center
Sun 02:40:38 PM 30.4192 -95.5461 323° Northwest 293 337 12,600 1,935 Climbing Houston Center
Sun 02:41:40 PM 30.4808 -95.6025 322° Northwest 284 327 14,500 1,839 Climbing Houston Center
Sun 02:42:42 PM 30.5406 -95.6564 322° Northwest 275 316 16,400 1,645 Climbing Houston Center
Sun 02:43:44 PM 30.6219 -95.6981 336° Northwest 266 306 17,900 1,065 Climbing Houston Center
Sun 02:44:46 PM 30.6881 -95.7336 335° Northwest 282 325 18,600 774 Climbing Houston Center
Sun 02:45:48 PM 30.7650 -95.7744 335° Northwest 299 344 19,500 968 Climbing Houston Center
Sun 02:46:50 PM 30.8614 -95.8264 335° Northwest 314 361 20,600 919 Climbing Houston Center
Sun 02:47:52 PM 30.9478 -95.8728 335° Northwest 334 384 21,400 581 Climbing Houston Center
Sun 02:48:54 PM 31.0406 -95.9233 335° Northwest 359 413 21,800 726 Climbing Houston Center
Sun 02:49:56 PM 31.1353 -95.9725 336° Northwest 368 423 22,900 1,065 Climbing Houston Center
Sun 02:50:58 PM 31.2333 -96.0100 342° North 368 423 24,000 1,113 Climbing Houston Center
Sun 02:52:00 PM 31.3294 -96.0467 342° North 364 419 25,200 1,210 Climbing Houston Center
Sun 02:53:02 PM 31.4311 -96.0858 342° North 357 411 26,500 1,161 Climbing Houston Center
Sun 02:54:04 PM 31.5236 -96.1219 342° North 350 403 27,600 1,113 Climbing Houston Center
Sun 02:55:06 PM 31.6144 -96.1578 341° North 343 395 28,800 1,161 Climbing Houston Center
Sun 02:56:08 PM 31.7181 -96.1981 342° North 334 384 30,000 610 Climbing Houston Center
Sun 02:57:04 PM 31.7964 -96.2303 341° North 341 392 30,000  Level Fort Worth Center
Sun 02:58:04 PM 31.8992 -96.2706 342° North 348 400 30,000  Level Fort Worth Center
Sun 02:59:04 PM 32.0061 -96.3083 343° North 367 422 30,000  Level Fort Worth Center
Sun 03:00:04 PM 32.1128 -96.3464 343° North 391 450 30,000  Level Fort Worth Center
Sun 03:01:04 PM 32.2239 -96.3869 343° North 397 457 30,000  Level Fort Worth Center
Sun 03:02:04 PM 32.3328 -96.4250 344° North 403 464 30,000  Level Fort Worth Center
Sun 03:03:04 PM 32.4436 -96.4656 343° North 403 464 30,000  Level Fort Worth Center
Sun 03:04:04 PM 32.5525 -96.5089 341° North 403 464 30,000  Level Fort Worth Center
Sun 03:05:04 PM 32.6614 -96.5472 343° North 403 464 30,000  Level Fort Worth Center
Sun 03:06:04 PM 32.7617 -96.5858 342° North 403 464 30,000  Level Fort Worth Center
Sun 03:07:05 PM 32.8728 -96.6269 343° North 408 470 30,000  Level Fort Worth Center
Sun 03:08:04 PM 32.9814 -96.6656 343° North 408 470 30,000  Level Fort Worth Center
Sun 03:09:04 PM 33.0903 -96.7067 342° North 408 470 30,000  Level Fort Worth Center
Sun 03:10:05 PM 33.2011 -96.7481 343° North 408 470 30,000  Level Fort Worth Center
Sun 03:11:04 PM 33.3142 -96.7894 343° North 408 470 30,000  Level Fort Worth Center
Sun 03:12:04 PM 33.4228 -96.8336 341° North 408 470 30,000  Level Fort Worth Center
Sun 03:13:05 PM 33.5336 -96.8753 343° North 408 470 30,000  Level Fort Worth Center
Sun 03:14:04 PM 33.6444 -96.9169 343° North 408 470 30,000  Level Fort Worth Center
Sun 03:15:04 PM 33.7531 -96.9614 341° North 408 470 30,000  Level Fort Worth Center
Sun 03:16:05 PM 33.8617 -97.0008 343° North 408 470 30,000 -750 Level Fort Worth Center
Sun 03:17:04 PM 33.9767 -97.0453 342° North 408 470 28,500 -1,714 Descending Fort Worth Center
Sun 03:18:04 PM 34.0917 -97.0900 342° North 414 476 26,600 -2,033 Descending Fort Worth Center
Sun 03:19:05 PM 34.2189 -97.1397 342° North 430 495 24,400 -2,100 Descending Fort Worth Center
Sun 03:20:04 PM 34.3381 -97.1897 341° North 436 502 22,400 -2,017 Descending Fort Worth Center
Sun 03:21:04 PM 34.4528 -97.2347 342° North 436 502 20,400 -1,878 Descending Fort Worth Center
Sun 03:21:59 PM 34.5383 -97.2672 343° North 434 499 18,800 -1,967 Descending Fort Worth Center
Sun 03:22:05 PM 34.5656 -97.2800 339° North 441 507 18,400 -2,215 Descending Fort Worth Center
Sun 03:23:04 PM 34.6783 -97.3225 343° North 435 501 16,400 -2,000 Descending Fort Worth Center
Sun 03:23:17 PM 34.6969 -97.3328 336° Northwest 426 490 16,000 -1,900 Descending Fort Worth Center
Sun 03:24:04 PM 34.7889 -97.3603 346° North 424 488 14,500 -1,869 Descending Fort Worth Center
Sun 03:24:18 PM 34.8075 -97.3631 353° North 411 473 14,100 -1,967 Descending Fort Worth Center
Sun 03:25:05 PM 34.8953 -97.3806 351° North 402 463 12,500 -1,967 Descending Fort Worth Center
Sun 03:25:19 PM 34.9139 -97.3831 354° North 387 445 12,100 -1,424 Descending Fort Worth Center
Sun 03:26:04 PM 34.9975 -97.3983 351° North 384 442 11,100 -1,300 Descending Fort Worth Center
Sun 03:26:19 PM 35.0119 -97.4033 344° North 351 404 10,800 -1,400 Descending Fort Worth Center
Sun 03:27:04 PM 35.0831 -97.4161 352° North 343 395 9,700 -1,475 Descending Fort Worth Center
Sun 03:27:20 PM 35.0975 -97.4186 352° North 304 350 9,300 -724 Descending Fort Worth Center
Sun 03:28:02 PM 35.1622 -97.4314 351° North 288 331 9,000 -400 Descending Fort Worth Center
Sun 03:28:05 PM 35.1642 -97.4289 46° Northeast 310 357 9,000 -97 Level Fort Worth Center
Sun 03:29:04 PM 35.2456 -97.4442 351° North 296 341 8,900 -257 Descending Fort Worth Center
Sun 03:29:15 PM 35.2603 -97.4517 337° Northwest 286 329 8,700 -1,700 Descending Fort Worth Center
Sun 03:30:04 PM 35.3208 -97.4594 354° North 285 328 7,200 -1,636 Descending Fort Worth Center
Sun 03:30:10 PM 35.3186 -97.4619 223° Southwest 277 319 7,200 -1,727 Level Fort Worth Center
Sun 03:31:10 PM 35.3958 -97.4697 355° North 268 308 5,300 -1,587 Descending Fort Worth Center
Sun 03:32:11 PM 35.4731 -97.4697 360° North 268 308 4,000 -1,172 Descending Fort Worth Center
Sun 03:33:18 PM 35.4917 -97.5461 287° West 214 246 2,800 -684 Descending Fort Worth Center
Sun 03:34:05 PM 35.4708 -97.5869 238° Southwest 144 166 2,700 -111 Descending Fort Worth Center
Sun 03:34:12 PM 35.4708 -97.5869 238° Southwest 176 203 2,700 -814 Level Fort Worth Center
Sun 03:35:04 PM 35.4333 -97.5919 186° South 106 122 1,900 -787 Descending Fort Worth Center
Sun 03:35:13 PM 35.4333 -97.5919 186° South 127 146 1,900 -500 Level Fort Worth Center
Sun 03:36:04 PM 35.4019 -97.5919 180° South 106 122 1,400 -588 Descending Fort Worth Center

Login

Don't have an account? Register now (free) for customized features, flight alerts, and more!